Main page
METAR-TAF:

METAR-TAF

Airports :

Adolfo Suárez Madrid–Barajas Airport

Madrid, Spain

latitude: 40-27N, longitude: 003-33W, elevation: 609 m

Current weather observation

The report was made 35 minutes ago, at 12:30 UTC
Wind 6 kt from variable directions
Temperature 23°C
Humidity 44%
Pressure 1019 hPa
Visibility 10 km or more
Scattered clouds at a height of 5000 ft

METAR: LEMD 211230Z VRB06KT 9999 SCT050 23/10 Q1019 NOSIG

Time: 15:05 (13:05 UTC)

Forecast

The report was made 2 hours and 5 minutes ago, at 11:00 UTC
Forecast valid from 21 at 12 UTC to 22 at 18 UTC
Wind 5 kt from variable directions
Visibility 10 km or more
Few clouds at a height of 3000 ft
Probability 30% :
Temporary
from 21 at 13 UTC to 21 at 18 UTC
Wind 10 kt from the West/Southwest

TAF: LEMD 211100Z 2112/2218 VRB05KT 9999 FEW030 TX25/2116Z TN12/2206Z PROB30 TEMPO 2113/2118 25010KT

Weather observations and forecasts of more than 4000 airports (METAR and TAF reports).

The available stations are represented by yellow and red dots on the map.

Hover mouse over dot to see the name of the station.

Then click to see weather observations and forecasts.

To change the map : click on the green buttons with a black cross to zoom in, on the green button with a dash to zoom out, or on the green arrows for adjacent maps.


METAR-TAF: